sensor_id;sensor_type;location;lat;lon;timestamp;temperature;humidity
439;DHT22;206;48.782;9.252;2022-10-22T00:01:11;15.80;74.80
439;DHT22;206;48.782;9.252;2022-10-22T00:03:37;15.60;74.50
439;DHT22;206;48.782;9.252;2022-10-22T00:06:03;15.70;77.50
439;DHT22;206;48.782;9.252;2022-10-22T00:08:28;15.60;78.10
439;DHT22;206;48.782;9.252;2022-10-22T00:10:54;15.70;79.50
439;DHT22;206;48.782;9.252;2022-10-22T00:13:20;15.70;80.00
439;DHT22;206;48.782;9.252;2022-10-22T00:15:46;15.70;80.90
439;DHT22;206;48.782;9.252;2022-10-22T00:18:12;15.70;80.70
439;DHT22;206;48.782;9.252;2022-10-22T00:20:37;15.60;80.40
439;DHT22;206;48.782;9.252;2022-10-22T00:23:03;15.60;82.10
439;DHT22;206;48.782;9.252;2022-10-22T00:25:29;15.60;82.50
439;DHT22;206;48.782;9.252;2022-10-22T00:27:54;15.60;82.60
439;DHT22;206;48.782;9.252;2022-10-22T00:30:20;15.70;82.80
439;DHT22;206;48.782;9.252;2022-10-22T00:32:46;15.60;79.50
439;DHT22;206;48.782;9.252;2022-10-22T00:35:11;15.60;78.50
439;DHT22;206;48.782;9.252;2022-10-22T00:37:37;15.60;79.20
439;DHT22;206;48.782;9.252;2022-10-22T00:40:03;15.60;80.70
439;DHT22;206;48.782;9.252;2022-10-22T00:42:29;15.50;80.90
439;DHT22;206;48.782;9.252;2022-10-22T00:47:59;15.40;82.80
439;DHT22;206;48.782;9.252;2022-10-22T00:52:55;15.50;82.90
439;DHT22;206;48.782;9.252;2022-10-22T00:55:23;15.40;82.80
439;DHT22;206;48.782;9.252;2022-10-22T00:57:51;15.40;84.10
439;DHT22;206;48.782;9.252;2022-10-22T01:00:17;15.40;82.80
439;DHT22;206;48.782;9.252;2022-10-22T01:02:43;15.40;83.70
439;DHT22;206;48.782;9.252;2022-10-22T01:05:09;15.40;82.80
439;DHT22;206;48.782;9.252;2022-10-22T01:07:48;15.40;82.80
439;DHT22;206;48.782;9.252;2022-10-22T01:10:38;15.40;82.80
439;DHT22;206;48.782;9.252;2022-10-22T01:13:29;15.40;81.10
439;DHT22;206;48.782;9.252;2022-10-22T01:16:06;15.40;82.40
439;DHT22;206;48.782;9.252;2022-10-22T01:18:40;15.50;82.40
439;DHT22;206;48.782;9.252;2022-10-22T01:29:14;15.40;82.80
439;DHT22;206;48.782;9.252;2022-10-22T01:32:00;15.40;83.80
439;DHT22;206;48.782;9.252;2022-10-22T01:34:28;15.20;83.90
439;DHT22;206;48.782;9.252;2022-10-22T01:36:55;15.20;86.00
439;DHT22;206;48.782;9.252;2022-10-22T01:39:22;15.20;87.30
439;DHT22;206;48.782;9.252;2022-10-22T01:41:48;15.10;88.20
439;DHT22;206;48.782;9.252;2022-10-22T01:44:31;15.10;89.30
439;DHT22;206;48.782;9.252;2022-10-22T01:47:19;15.20;89.10
439;DHT22;206;48.782;9.252;2022-10-22T02:00:49;15.10;90.20
439;DHT22;206;48.782;9.252;2022-10-22T02:03:35;15.10;89.70
439;DHT22;206;48.782;9.252;2022-10-22T02:06:06;15.10;90.10
439;DHT22;206;48.782;9.252;2022-10-22T02:08:34;15.20;90.10
439;DHT22;206;48.782;9.252;2022-10-22T02:11:02;15.20;88.80
439;DHT22;206;48.782;9.252;2022-10-22T02:13:36;15.20;87.30
439;DHT22;206;48.782;9.252;2022-10-22T02:16:07;15.20;86.10
439;DHT22;206;48.782;9.252;2022-10-22T02:18:36;15.20;86.00
439;DHT22;206;48.782;9.252;2022-10-22T02:21:03;15.30;85.90
439;DHT22;206;48.782;9.252;2022-10-22T02:23:30;15.30;85.10
439;DHT22;206;48.782;9.252;2022-10-22T02:26:04;15.30;84.60
439;DHT22;206;48.782;9.252;2022-10-22T02:28:44;15.30;84.30
439;DHT22;206;48.782;9.252;2022-10-22T02:31:17;15.30;85.20
439;DHT22;206;48.782;9.252;2022-10-22T02:33:51;15.20;86.10
439;DHT22;206;48.782;9.252;2022-10-22T02:36:17;15.10;84.50
439;DHT22;206;48.782;9.252;2022-10-22T02:38:46;15.00;84.30
439;DHT22;206;48.782;9.252;2022-10-22T02:41:14;15.00;85.10
439;DHT22;206;48.782;9.252;2022-10-22T02:43:42;15.10;85.60
439;DHT22;206;48.782;9.252;2022-10-22T02:46:09;15.10;85.40
439;DHT22;206;48.782;9.252;2022-10-22T02:48:36;15.10;84.60
439;DHT22;206;48.782;9.252;2022-10-22T02:51:02;15.10;82.70
439;DHT22;206;48.782;9.252;2022-10-22T02:53:27;15.10;82.70
439;DHT22;206;48.782;9.252;2022-10-22T02:55:53;15.10;85.00
439;DHT22;206;48.782;9.252;2022-10-22T02:58:19;15.10;84.80
439;DHT22;206;48.782;9.252;2022-10-22T03:00:44;15.10;83.70
439;DHT22;206;48.782;9.252;2022-10-22T03:03:10;15.10;83.70
439;DHT22;206;48.782;9.252;2022-10-22T03:05:35;15.10;83.80
439;DHT22;206;48.782;9.252;2022-10-22T03:08:01;15.10;83.50
439;DHT22;206;48.782;9.252;2022-10-22T03:10:26;15.10;81.70
439;DHT22;206;48.782;9.252;2022-10-22T03:12:52;15.20;82.10
439;DHT22;206;48.782;9.252;2022-10-22T03:15:17;15.20;80.20
439;DHT22;206;48.782;9.252;2022-10-22T03:17:43;15.20;80.80
439;DHT22;206;48.782;9.252;2022-10-22T03:20:09;15.20;80.40
439;DHT22;206;48.782;9.252;2022-10-22T03:22:35;15.20;81.10
439;DHT22;206;48.782;9.252;2022-10-22T03:25:07;15.20;81.30
439;DHT22;206;48.782;9.252;2022-10-22T03:27:35;15.20;80.60
439;DHT22;206;48.782;9.252;2022-10-22T03:30:02;15.10;81.80
439;DHT22;206;48.782;9.252;2022-10-22T03:32:28;15.00;82.40
439;DHT22;206;48.782;9.252;2022-10-22T03:34:53;14.90;84.10
439;DHT22;206;48.782;9.252;2022-10-22T03:37:19;14.90;85.10
439;DHT22;206;48.782;9.252;2022-10-22T03:39:45;15.00;85.50
439;DHT22;206;48.782;9.252;2022-10-22T03:42:11;14.90;83.80
439;DHT22;206;48.782;9.252;2022-10-22T03:44:38;15.00;83.70
439;DHT22;206;48.782;9.252;2022-10-22T03:47:05;15.00;84.10
439;DHT22;206;48.782;9.252;2022-10-22T03:49:30;15.00;83.90
439;DHT22;206;48.782;9.252;2022-10-22T03:51:56;15.00;83.30
439;DHT22;206;48.782;9.252;2022-10-22T03:54:22;15.10;83.10
439;DHT22;206;48.782;9.252;2022-10-22T03:56:47;15.00;83.10
439;DHT22;206;48.782;9.252;2022-10-22T03:59:13;15.00;84.20
439;DHT22;206;48.782;9.252;2022-10-22T04:01:39;15.00;83.70
439;DHT22;206;48.782;9.252;2022-10-22T04:04:05;15.00;82.80
439;DHT22;206;48.782;9.252;2022-10-22T04:06:30;15.00;83.40
439;DHT22;206;48.782;9.252;2022-10-22T04:08:56;15.00;83.00
439;DHT22;206;48.782;9.252;2022-10-22T04:11:23;15.00;83.00
439;DHT22;206;48.782;9.252;2022-10-22T04:13:48;15.00;82.40
439;DHT22;206;48.782;9.252;2022-10-22T04:16:18;15.00;82.80
439;DHT22;206;48.782;9.252;2022-10-22T04:18:46;15.00;81.80
439;DHT22;206;48.782;9.252;2022-10-22T04:21:14;15.10;82.20
439;DHT22;206;48.782;9.252;2022-10-22T04:23:48;15.10;82.60
439;DHT22;206;48.782;9.252;2022-10-22T04:26:15;15.10;82.50
439;DHT22;206;48.782;9.252;2022-10-22T04:28:41;15.10;81.40
439;DHT22;206;48.782;9.252;2022-10-22T04:31:12;15.10;82.50
439;DHT22;206;48.782;9.252;2022-10-22T04:33:38;15.10;82.50
439;DHT22;206;48.782;9.252;2022-10-22T04:36:08;15.10;82.00
439;DHT22;206;48.782;9.252;2022-10-22T04:38:36;15.00;80.90
439;DHT22;206;48.782;9.252;2022-10-22T04:41:16;14.90;81.60
439;DHT22;206;48.782;9.252;2022-10-22T04:43:43;14.90;81.60
439;DHT22;206;48.782;9.252;2022-10-22T04:46:10;14.80;83.10
439;DHT22;206;48.782;9.252;2022-10-22T04:48:36;14.80;83.50
439;DHT22;206;48.782;9.252;2022-10-22T04:51:04;14.80;82.70
439;DHT22;206;48.782;9.252;2022-10-22T04:53:31;14.80;83.40
439;DHT22;206;48.782;9.252;2022-10-22T04:56:28;14.80;84.00
439;DHT22;206;48.782;9.252;2022-10-22T04:58:57;14.70;83.30
439;DHT22;206;48.782;9.252;2022-10-22T05:01:25;14.70;84.70
439;DHT22;206;48.782;9.252;2022-10-22T05:03:53;14.70;84.90
439;DHT22;206;48.782;9.252;2022-10-22T05:06:21;14.60;84.90
439;DHT22;206;48.782;9.252;2022-10-22T05:08:47;14.60;85.00
439;DHT22;206;48.782;9.252;2022-10-22T05:11:19;14.70;84.80
439;DHT22;206;48.782;9.252;2022-10-22T05:13:45;14.70;84.10
439;DHT22;206;48.782;9.252;2022-10-22T05:16:11;14.70;82.70
439;DHT22;206;48.782;9.252;2022-10-22T05:18:39;14.70;83.20
439;DHT22;206;48.782;9.252;2022-10-22T05:21:12;14.80;83.80
439;DHT22;206;48.782;9.252;2022-10-22T05:23:37;14.80;82.20
439;DHT22;206;48.782;9.252;2022-10-22T05:26:05;14.80;81.00
439;DHT22;206;48.782;9.252;2022-10-22T05:28:32;14.80;77.40
439;DHT22;206;48.782;9.252;2022-10-22T05:30:58;14.90;77.50
439;DHT22;206;48.782;9.252;2022-10-22T05:33:25;14.90;76.10
439;DHT22;206;48.782;9.252;2022-10-22T05:35:51;15.00;77.00
439;DHT22;206;48.782;9.252;2022-10-22T05:38:17;15.10;77.70
439;DHT22;206;48.782;9.252;2022-10-22T05:40:43;15.10;77.20
439;DHT22;206;48.782;9.252;2022-10-22T05:43:09;15.20;75.70
439;DHT22;206;48.782;9.252;2022-10-22T05:45:41;15.20;75.40
439;DHT22;206;48.782;9.252;2022-10-22T05:48:08;15.30;75.70
439;DHT22;206;48.782;9.252;2022-10-22T05:50:37;15.30;76.20
439;DHT22;206;48.782;9.252;2022-10-22T05:53:04;15.30;76.50
439;DHT22;206;48.782;9.252;2022-10-22T05:55:33;15.40;76.70
439;DHT22;206;48.782;9.252;2022-10-22T05:58:02;15.40;76.20
439;DHT22;206;48.782;9.252;2022-10-22T06:00:27;15.40;74.80
439;DHT22;206;48.782;9.252;2022-10-22T06:02:53;15.40;73.50
439;DHT22;206;48.782;9.252;2022-10-22T06:05:18;15.40;71.80
439;DHT22;206;48.782;9.252;2022-10-22T06:07:44;15.50;71.60
439;DHT22;206;48.782;9.252;2022-10-22T06:10:13;15.50;70.60
439;DHT22;206;48.782;9.252;2022-10-22T06:12:39;15.50;71.00
439;DHT22;206;48.782;9.252;2022-10-22T06:15:06;15.50;71.60
439;DHT22;206;48.782;9.252;2022-10-22T06:17:31;15.50;73.10
439;DHT22;206;48.782;9.252;2022-10-22T06:19:57;15.50;71.70
439;DHT22;206;48.782;9.252;2022-10-22T06:22:23;15.50;71.70
439;DHT22;206;48.782;9.252;2022-10-22T06:24:48;15.50;72.10
439;DHT22;206;48.782;9.252;2022-10-22T06:27:14;15.50;71.10
439;DHT22;206;48.782;9.252;2022-10-22T06:29:39;15.50;72.20
439;DHT22;206;48.782;9.252;2022-10-22T06:32:05;15.40;74.00
439;DHT22;206;48.782;9.252;2022-10-22T06:34:30;15.40;74.60
439;DHT22;206;48.782;9.252;2022-10-22T06:36:56;15.40;76.10
439;DHT22;206;48.782;9.252;2022-10-22T06:39:22;15.40;76.20
439;DHT22;206;48.782;9.252;2022-10-22T06:41:47;15.40;75.30
439;DHT22;206;48.782;9.252;2022-10-22T06:44:14;15.40;75.40
439;DHT22;206;48.782;9.252;2022-10-22T06:46:40;15.30;76.30
439;DHT22;206;48.782;9.252;2022-10-22T06:49:06;15.40;75.80
439;DHT22;206;48.782;9.252;2022-10-22T06:51:34;15.30;73.70
439;DHT22;206;48.782;9.252;2022-10-22T06:54:00;15.40;73.50
439;DHT22;206;48.782;9.252;2022-10-22T06:56:26;15.40;72.10
439;DHT22;206;48.782;9.252;2022-10-22T06:58:54;15.40;70.30
439;DHT22;206;48.782;9.252;2022-10-22T07:01:24;15.50;70.10
439;DHT22;206;48.782;9.252;2022-10-22T07:03:50;15.60;70.30
439;DHT22;206;48.782;9.252;2022-10-22T07:06:17;15.70;69.10
439;DHT22;206;48.782;9.252;2022-10-22T07:08:43;15.70;68.30
439;DHT22;206;48.782;9.252;2022-10-22T07:11:16;15.80;68.40
439;DHT22;206;48.782;9.252;2022-10-22T07:13:43;15.80;66.60
439;DHT22;206;48.782;9.252;2022-10-22T07:16:09;15.80;67.30
439;DHT22;206;48.782;9.252;2022-10-22T07:18:36;15.90;67.40
439;DHT22;206;48.782;9.252;2022-10-22T07:21:03;16.00;67.10
439;DHT22;206;48.782;9.252;2022-10-22T07:23:29;16.10;65.60
439;DHT22;206;48.782;9.252;2022-10-22T07:25:55;16.20;64.80
439;DHT22;206;48.782;9.252;2022-10-22T07:28:21;16.40;65.00
439;DHT22;206;48.782;9.252;2022-10-22T07:30:47;16.50;64.50
439;DHT22;206;48.782;9.252;2022-10-22T07:33:13;16.60;62.30
439;DHT22;206;48.782;9.252;2022-10-22T07:35:39;16.70;62.10
439;DHT22;206;48.782;9.252;2022-10-22T07:38:06;16.80;59.40
439;DHT22;206;48.782;9.252;2022-10-22T07:40:32;16.80;59.30
439;DHT22;206;48.782;9.252;2022-10-22T07:42:58;16.90;59.40
439;DHT22;206;48.782;9.252;2022-10-22T07:45:24;16.90;59.50
439;DHT22;206;48.782;9.252;2022-10-22T07:47:49;16.90;59.00
439;DHT22;206;48.782;9.252;2022-10-22T07:50:15;16.90;59.50
439;DHT22;206;48.782;9.252;2022-10-22T07:52:41;16.90;59.50
439;DHT22;206;48.782;9.252;2022-10-22T07:55:07;17.00;59.50
439;DHT22;206;48.782;9.252;2022-10-22T07:57:33;17.00;59.30
439;DHT22;206;48.782;9.252;2022-10-22T07:59:59;17.00;59.50
439;DHT22;206;48.782;9.252;2022-10-22T08:02:25;17.00;59.50
439;DHT22;206;48.782;9.252;2022-10-22T08:04:51;17.10;59.60
439;DHT22;206;48.782;9.252;2022-10-22T08:07:17;17.10;59.60
439;DHT22;206;48.782;9.252;2022-10-22T08:09:43;17.20;59.70
439;DHT22;206;48.782;9.252;2022-10-22T08:12:08;17.20;59.70
439;DHT22;206;48.782;9.252;2022-10-22T08:14:34;17.30;59.80
439;DHT22;206;48.782;9.252;2022-10-22T08:17:00;17.30;59.80
439;DHT22;206;48.782;9.252;2022-10-22T08:19:25;17.40;59.50
439;DHT22;206;48.782;9.252;2022-10-22T08:21:53;17.40;59.20
439;DHT22;206;48.782;9.252;2022-10-22T08:24:18;17.40;59.60
439;DHT22;206;48.782;9.252;2022-10-22T08:26:44;17.40;58.60
439;DHT22;206;48.782;9.252;2022-10-22T08:29:10;17.50;58.30
439;DHT22;206;48.782;9.252;2022-10-22T08:31:35;17.60;57.80
439;DHT22;206;48.782;9.252;2022-10-22T08:34:01;17.50;57.00
439;DHT22;206;48.782;9.252;2022-10-22T08:36:26;17.40;58.60
439;DHT22;206;48.782;9.252;2022-10-22T08:38:52;17.40;58.20
439;DHT22;206;48.782;9.252;2022-10-22T08:41:20;17.50;59.00
439;DHT22;206;48.782;9.252;2022-10-22T08:46:56;17.40;59.90
439;DHT22;206;48.782;9.252;2022-10-22T08:49:28;17.30;59.80
439;DHT22;206;48.782;9.252;2022-10-22T08:51:58;17.40;60.60
439;DHT22;206;48.782;9.252;2022-10-22T08:54:32;17.40;60.10
439;DHT22;206;48.782;9.252;2022-10-22T08:59:45;17.60;60.80
439;DHT22;206;48.782;9.252;2022-10-22T09:07:42;17.70;58.40
439;DHT22;206;48.782;9.252;2022-10-22T09:10:10;17.80;58.30
439;DHT22;206;48.782;9.252;2022-10-22T09:12:36;17.90;57.60
439;DHT22;206;48.782;9.252;2022-10-22T09:15:02;17.90;58.20
439;DHT22;206;48.782;9.252;2022-10-22T09:17:40;17.90;57.90
439;DHT22;206;48.782;9.252;2022-10-22T09:20:19;18.00;57.40
439;DHT22;206;48.782;9.252;2022-10-22T09:25:36;18.10;58.20
439;DHT22;206;48.782;9.252;2022-10-22T09:28:04;18.10;57.10
439;DHT22;206;48.782;9.252;2022-10-22T09:30:33;18.20;57.80
439;DHT22;206;48.782;9.252;2022-10-22T09:35:59;18.40;56.90
439;DHT22;206;48.782;9.252;2022-10-22T09:38:35;18.50;57.00
439;DHT22;206;48.782;9.252;2022-10-22T09:41:03;18.70;56.50
439;DHT22;206;48.782;9.252;2022-10-22T09:43:29;18.80;53.80
439;DHT22;206;48.782;9.252;2022-10-22T09:46:04;18.90;54.00
439;DHT22;206;48.782;9.252;2022-10-22T09:48:34;19.10;53.00
439;DHT22;206;48.782;9.252;2022-10-22T09:51:13;19.20;52.60
439;DHT22;206;48.782;9.252;2022-10-22T09:53:46;19.40;50.90
439;DHT22;206;48.782;9.252;2022-10-22T09:56:32;19.60;51.00
439;DHT22;206;48.782;9.252;2022-10-22T09:58:59;19.70;48.80
439;DHT22;206;48.782;9.252;2022-10-22T10:01:33;19.70;49.10
439;DHT22;206;48.782;9.252;2022-10-22T10:04:04;19.90;48.60
439;DHT22;206;48.782;9.252;2022-10-22T10:06:32;20.00;47.80
439;DHT22;206;48.782;9.252;2022-10-22T10:08:58;20.10;47.80
439;DHT22;206;48.782;9.252;2022-10-22T10:12:02;20.10;46.00
439;DHT22;206;48.782;9.252;2022-10-22T10:20:49;20.40;43.70
439;DHT22;206;48.782;9.252;2022-10-22T10:23:57;20.50;44.30
439;DHT22;206;48.782;9.252;2022-10-22T10:26:37;20.70;43.30
439;DHT22;206;48.782;9.252;2022-10-22T10:29:38;20.80;43.40
439;DHT22;206;48.782;9.252;2022-10-22T10:32:32;20.90;42.90
439;DHT22;206;48.782;9.252;2022-10-22T10:35:15;21.00;42.80
439;DHT22;206;48.782;9.252;2022-10-22T10:48:51;21.70;35.50
439;DHT22;206;48.782;9.252;2022-10-22T10:54:02;22.00;34.20
439;DHT22;206;48.782;9.252;2022-10-22T10:56:59;22.30;34.10
439;DHT22;206;48.782;9.252;2022-10-22T10:59:42;22.40;32.00
439;DHT22;206;48.782;9.252;2022-10-22T11:07:33;22.60;29.70
439;DHT22;206;48.782;9.252;2022-10-22T11:12:42;22.60;29.20
439;DHT22;206;48.782;9.252;2022-10-22T11:15:30;22.60;28.50
439;DHT22;206;48.782;9.252;2022-10-22T11:18:07;22.50;28.60
439;DHT22;206;48.782;9.252;2022-10-22T11:23:26;22.10;28.40
439;DHT22;206;48.782;9.252;2022-10-22T11:25:53;22.00;29.30
439;DHT22;206;48.782;9.252;2022-10-22T11:28:38;22.00;28.60
439;DHT22;206;48.782;9.252;2022-10-22T11:31:13;22.00;28.20
439;DHT22;206;48.782;9.252;2022-10-22T11:33:59;21.90;28.50
439;DHT22;206;48.782;9.252;2022-10-22T11:36:29;21.70;29.10
439;DHT22;206;48.782;9.252;2022-10-22T11:38:56;21.60;29.80
439;DHT22;206;48.782;9.252;2022-10-22T11:41:28;21.60;29.50
439;DHT22;206;48.782;9.252;2022-10-22T11:44:08;21.60;28.00
439;DHT22;206;48.782;9.252;2022-10-22T11:47:03;21.70;28.00
439;DHT22;206;48.782;9.252;2022-10-22T11:49:44;21.60;28.20
439;DHT22;206;48.782;9.252;2022-10-22T11:52:48;21.60;28.80
439;DHT22;206;48.782;9.252;2022-10-22T11:55:31;21.40;29.60
439;DHT22;206;48.782;9.252;2022-10-22T11:58:01;21.30;29.80
439;DHT22;206;48.782;9.252;2022-10-22T12:00:48;21.30;29.70
439;DHT22;206;48.782;9.252;2022-10-22T12:05:45;21.30;29.30
439;DHT22;206;48.782;9.252;2022-10-22T12:08:24;21.60;29.10
439;DHT22;206;48.782;9.252;2022-10-22T12:13:33;21.90;28.10
439;DHT22;206;48.782;9.252;2022-10-22T12:16:15;21.90;27.20
439;DHT22;206;48.782;9.252;2022-10-22T12:18:43;21.80;27.90
439;DHT22;206;48.782;9.252;2022-10-22T12:21:14;21.80;28.30
439;DHT22;206;48.782;9.252;2022-10-22T12:23:41;21.60;28.10
439;DHT22;206;48.782;9.252;2022-10-22T12:26:28;21.60;28.20
439;DHT22;206;48.782;9.252;2022-10-22T12:28:58;21.60;26.50
439;DHT22;206;48.782;9.252;2022-10-22T12:31:24;21.50;26.80
439;DHT22;206;48.782;9.252;2022-10-22T12:33:59;21.50;27.30
439;DHT22;206;48.782;9.252;2022-10-22T12:36:29;21.40;27.50
439;DHT22;206;48.782;9.252;2022-10-22T12:38:59;21.30;27.90
439;DHT22;206;48.782;9.252;2022-10-22T12:41:33;21.20;28.40
439;DHT22;206;48.782;9.252;2022-10-22T12:44:03;21.20;28.70
439;DHT22;206;48.782;9.252;2022-10-22T12:46:32;21.10;28.40
439;DHT22;206;48.782;9.252;2022-10-22T12:48:59;21.10;28.70
439;DHT22;206;48.782;9.252;2022-10-22T12:51:26;21.10;28.80
439;DHT22;206;48.782;9.252;2022-10-22T12:53:55;21.10;29.00
439;DHT22;206;48.782;9.252;2022-10-22T12:56:31;21.10;28.90
439;DHT22;206;48.782;9.252;2022-10-22T12:59:01;21.10;28.80
439;DHT22;206;48.782;9.252;2022-10-22T13:01:33;21.10;28.90
439;DHT22;206;48.782;9.252;2022-10-22T13:04:31;21.10;28.10
439;DHT22;206;48.782;9.252;2022-10-22T13:09:37;21.10;28.30
439;DHT22;206;48.782;9.252;2022-10-22T13:12:05;20.90;28.60
439;DHT22;206;48.782;9.252;2022-10-22T13:14:33;21.00;28.20
439;DHT22;206;48.782;9.252;2022-10-22T13:19:38;21.10;27.90
439;DHT22;206;48.782;9.252;2022-10-22T13:22:20;21.10;28.00
439;DHT22;206;48.782;9.252;2022-10-22T13:24:50;21.20;28.20
439;DHT22;206;48.782;9.252;2022-10-22T13:27:16;21.20;27.50
439;DHT22;206;48.782;9.252;2022-10-22T13:29:42;21.20;28.00
439;DHT22;206;48.782;9.252;2022-10-22T13:32:28;21.20;28.80
439;DHT22;206;48.782;9.252;2022-10-22T13:35:03;21.30;28.80
439;DHT22;206;48.782;9.252;2022-10-22T13:37:31;21.40;28.10
439;DHT22;206;48.782;9.252;2022-10-22T13:39:58;21.40;27.50
439;DHT22;206;48.782;9.252;2022-10-22T13:42:24;21.50;27.50
439;DHT22;206;48.782;9.252;2022-10-22T13:44:49;21.60;27.20
439;DHT22;206;48.782;9.252;2022-10-22T13:47:28;21.70;26.60
439;DHT22;206;48.782;9.252;2022-10-22T13:49:55;21.80;26.20
439;DHT22;206;48.782;9.252;2022-10-22T13:52:35;21.90;26.30
439;DHT22;206;48.782;9.252;2022-10-22T13:55:12;22.00;25.30
439;DHT22;206;48.782;9.252;2022-10-22T13:57:38;22.10;25.30
439;DHT22;206;48.782;9.252;2022-10-22T14:00:04;22.30;24.20
439;DHT22;206;48.782;9.252;2022-10-22T14:02:30;22.40;24.30
439;DHT22;206;48.782;9.252;2022-10-22T14:04:56;22.60;24.90
439;DHT22;206;48.782;9.252;2022-10-22T14:07:27;22.70;24.70
439;DHT22;206;48.782;9.252;2022-10-22T14:09:53;22.90;24.60
439;DHT22;206;48.782;9.252;2022-10-22T14:12:18;22.90;23.20
439;DHT22;206;48.782;9.252;2022-10-22T14:14:44;23.00;23.00
439;DHT22;206;48.782;9.252;2022-10-22T14:17:14;22.90;23.40
439;DHT22;206;48.782;9.252;2022-10-22T14:19:46;22.90;23.30
439;DHT22;206;48.782;9.252;2022-10-22T14:22:18;22.80;23.20
439;DHT22;206;48.782;9.252;2022-10-22T14:24:45;22.80;23.40
439;DHT22;206;48.782;9.252;2022-10-22T14:27:12;22.60;23.60
439;DHT22;206;48.782;9.252;2022-10-22T14:29:38;22.60;23.90
439;DHT22;206;48.782;9.252;2022-10-22T14:32:13;22.50;23.30
439;DHT22;206;48.782;9.252;2022-10-22T14:34:40;22.50;23.70
439;DHT22;206;48.782;9.252;2022-10-22T14:37:16;22.40;23.90
439;DHT22;206;48.782;9.252;2022-10-22T14:39:43;22.40;23.90
439;DHT22;206;48.782;9.252;2022-10-22T14:42:11;22.30;23.80
439;DHT22;206;48.782;9.252;2022-10-22T14:44:38;22.10;24.20
439;DHT22;206;48.782;9.252;2022-10-22T14:47:04;22.00;24.80
439;DHT22;206;48.782;9.252;2022-10-22T14:49:30;21.90;24.90
439;DHT22;206;48.782;9.252;2022-10-22T14:51:55;21.70;25.00
439;DHT22;206;48.782;9.252;2022-10-22T14:54:21;21.50;25.20
439;DHT22;206;48.782;9.252;2022-10-22T14:56:46;21.50;25.60
439;DHT22;206;48.782;9.252;2022-10-22T14:59:12;21.40;26.00
439;DHT22;206;48.782;9.252;2022-10-22T15:01:38;21.30;26.20
439;DHT22;206;48.782;9.252;2022-10-22T15:04:03;21.30;25.90
439;DHT22;206;48.782;9.252;2022-10-22T15:06:29;21.20;26.20
439;DHT22;206;48.782;9.252;2022-10-22T15:08:55;21.20;26.00
439;DHT22;206;48.782;9.252;2022-10-22T15:11:20;21.20;26.10
439;DHT22;206;48.782;9.252;2022-10-22T15:13:46;21.10;26.30
439;DHT22;206;48.782;9.252;2022-10-22T15:16:14;21.10;26.90
439;DHT22;206;48.782;9.252;2022-10-22T15:18:40;21.10;26.80
439;DHT22;206;48.782;9.252;2022-10-22T15:21:10;21.00;26.70
439;DHT22;206;48.782;9.252;2022-10-22T15:23:37;21.00;27.00
439;DHT22;206;48.782;9.252;2022-10-22T15:26:09;20.90;27.10
439;DHT22;206;48.782;9.252;2022-10-22T15:28:37;20.90;27.60
439;DHT22;206;48.782;9.252;2022-10-22T15:31:04;20.90;28.40
439;DHT22;206;48.782;9.252;2022-10-22T15:33:29;20.80;28.10
439;DHT22;206;48.782;9.252;2022-10-22T15:35:56;20.80;28.20
439;DHT22;206;48.782;9.252;2022-10-22T15:38:26;20.70;28.40
439;DHT22;206;48.782;9.252;2022-10-22T15:41:03;20.70;28.90
439;DHT22;206;48.782;9.252;2022-10-22T15:43:28;20.60;29.20
439;DHT22;206;48.782;9.252;2022-10-22T15:46:13;20.50;29.40
439;DHT22;206;48.782;9.252;2022-10-22T15:48:40;20.50;30.00
439;DHT22;206;48.782;9.252;2022-10-22T15:51:10;20.40;30.40
439;DHT22;206;48.782;9.252;2022-10-22T15:53:36;20.30;30.70
439;DHT22;206;48.782;9.252;2022-10-22T15:56:02;20.30;30.80
439;DHT22;206;48.782;9.252;2022-10-22T15:58:28;20.20;31.30
439;DHT22;206;48.782;9.252;2022-10-22T16:00:53;20.10;32.10
439;DHT22;206;48.782;9.252;2022-10-22T16:03:19;20.00;32.40
439;DHT22;206;48.782;9.252;2022-10-22T16:05:51;19.80;33.80
439;DHT22;206;48.782;9.252;2022-10-22T16:08:19;19.70;35.20
439;DHT22;206;48.782;9.252;2022-10-22T16:10:45;19.60;36.80
439;DHT22;206;48.782;9.252;2022-10-22T16:13:11;19.50;37.70
439;DHT22;206;48.782;9.252;2022-10-22T16:15:37;19.40;38.70
439;DHT22;206;48.782;9.252;2022-10-22T16:18:02;19.30;39.30
439;DHT22;206;48.782;9.252;2022-10-22T16:20:28;19.20;40.30
439;DHT22;206;48.782;9.252;2022-10-22T16:22:53;19.00;40.40
439;DHT22;206;48.782;9.252;2022-10-22T16:25:19;19.00;41.40
439;DHT22;206;48.782;9.252;2022-10-22T16:27:48;18.90;41.70
439;DHT22;206;48.782;9.252;2022-10-22T16:30:14;18.70;42.30
439;DHT22;206;48.782;9.252;2022-10-22T16:32:39;18.60;43.20
439;DHT22;206;48.782;9.252;2022-10-22T16:35:05;18.50;43.90
439;DHT22;206;48.782;9.252;2022-10-22T16:37:32;18.40;45.00
439;DHT22;206;48.782;9.252;2022-10-22T16:39:58;18.40;46.00
439;DHT22;206;48.782;9.252;2022-10-22T16:42:24;18.20;46.40
439;DHT22;206;48.782;9.252;2022-10-22T16:44:49;18.20;47.20
439;DHT22;206;48.782;9.252;2022-10-22T16:47:15;18.10;47.60
439;DHT22;206;48.782;9.252;2022-10-22T16:49:41;18.00;47.80
439;DHT22;206;48.782;9.252;2022-10-22T16:52:06;18.00;48.20
439;DHT22;206;48.782;9.252;2022-10-22T16:54:32;17.90;49.00
439;DHT22;206;48.782;9.252;2022-10-22T16:56:57;17.80;49.40
439;DHT22;206;48.782;9.252;2022-10-22T16:59:23;17.80;50.70
439;DHT22;206;48.782;9.252;2022-10-22T17:01:48;17.70;50.50
439;DHT22;206;48.782;9.252;2022-10-22T17:04:14;17.60;52.20
439;DHT22;206;48.782;9.252;2022-10-22T17:06:42;17.50;53.50
439;DHT22;206;48.782;9.252;2022-10-22T17:09:07;17.40;53.80
439;DHT22;206;48.782;9.252;2022-10-22T17:11:33;17.40;54.50
439;DHT22;206;48.782;9.252;2022-10-22T17:14:00;17.30;55.00
439;DHT22;206;48.782;9.252;2022-10-22T17:16:26;17.20;55.70
439;DHT22;206;48.782;9.252;2022-10-22T17:18:53;17.10;56.50
439;DHT22;206;48.782;9.252;2022-10-22T17:21:19;17.10;57.40
439;DHT22;206;48.782;9.252;2022-10-22T17:23:45;17.00;58.10
439;DHT22;206;48.782;9.252;2022-10-22T17:26:19;16.90;59.20
439;DHT22;206;48.782;9.252;2022-10-22T17:28:47;16.80;59.30
439;DHT22;206;48.782;9.252;2022-10-22T17:31:32;16.70;59.30
439;DHT22;206;48.782;9.252;2022-10-22T17:34:00;16.70;60.60
439;DHT22;206;48.782;9.252;2022-10-22T17:36:26;16.60;61.20
439;DHT22;206;48.782;9.252;2022-10-22T17:38:54;16.60;61.80
439;DHT22;206;48.782;9.252;2022-10-22T17:41:25;16.50;61.90
439;DHT22;206;48.782;9.252;2022-10-22T17:43:51;16.50;62.70
439;DHT22;206;48.782;9.252;2022-10-22T17:46:25;16.40;64.30
439;DHT22;206;48.782;9.252;2022-10-22T17:48:56;16.30;63.20
439;DHT22;206;48.782;9.252;2022-10-22T17:51:23;16.30;63.80
439;DHT22;206;48.782;9.252;2022-10-22T17:53:49;16.30;63.90
439;DHT22;206;48.782;9.252;2022-10-22T17:56:17;16.20;63.80
439;DHT22;206;48.782;9.252;2022-10-22T17:58:43;16.20;63.80
439;DHT22;206;48.782;9.252;2022-10-22T18:01:16;16.20;64.70
439;DHT22;206;48.782;9.252;2022-10-22T18:03:43;16.10;65.00
439;DHT22;206;48.782;9.252;2022-10-22T18:06:09;16.10;65.40
439;DHT22;206;48.782;9.252;2022-10-22T18:08:35;16.10;65.40
439;DHT22;206;48.782;9.252;2022-10-22T18:11:05;16.10;65.50